createdAt,value
2022-08-26T00:00:20.115Z,100934.69
2022-08-26T00:02:48.320Z,100927.06
2022-08-26T00:05:16.585Z,100928.75
2022-08-26T00:07:44.482Z,100931.25
2022-08-26T00:10:12.780Z,100922.56
2022-08-26T00:12:41.260Z,100931.81
2022-08-26T00:15:14.038Z,100933.78
2022-08-26T00:17:43.343Z,100932.66
2022-08-26T00:20:14.441Z,100936.88
2022-08-26T00:22:43.763Z,100931.41
2022-08-26T00:25:12.580Z,100944.12
2022-08-26T00:27:41.095Z,100938.78
2022-08-26T00:30:13.372Z,100935.34
2022-08-26T00:32:41.761Z,100933.66
2022-08-26T00:35:15.190Z,100940.09
2022-08-26T00:37:43.956Z,100938.44
2022-08-26T00:40:17.051Z,100938.41
2022-08-26T00:42:46.452Z,100945.84
2022-08-26T00:45:16.960Z,100938.44
2022-08-26T00:47:57.036Z,100935.88
2022-08-26T00:50:31.764Z,100944.41
2022-08-26T00:53:02.386Z,100944.56
2022-08-26T00:55:39.926Z,100940.53
2022-08-26T00:58:09.219Z,100951.44
2022-08-26T01:00:37.167Z,100947.50
2022-08-26T01:03:05.524Z,100947.44
2022-08-26T01:05:42.315Z,100944.03
2022-08-26T01:08:10.358Z,100937.44
2022-08-26T01:13:25.721Z,100940.56
2022-08-26T01:15:56.971Z,100945.00
2022-08-26T01:18:26.053Z,100941.25
2022-08-26T01:21:08.087Z,100937.47
2022-08-26T01:23:39.581Z,100933.03
2022-08-26T01:26:19.511Z,100937.09
2022-08-26T01:28:51.504Z,100938.16
2022-08-26T01:31:46.573Z,100937.94
2022-08-26T01:34:19.713Z,100935.56
2022-08-26T01:36:51.484Z,100942.13
2022-08-26T01:39:20.086Z,100945.37
2022-08-26T01:41:53.539Z,100937.84
2022-08-26T01:44:27.162Z,100937.84
2022-08-26T01:46:57.193Z,100946.31
2022-08-26T01:49:27.198Z,100934.59
2022-08-26T01:51:57.515Z,100939.47
2022-08-26T01:54:26.641Z,100944.25
2022-08-26T01:56:55.511Z,100936.72
2022-08-26T01:59:25.514Z,100944.69
2022-08-26T02:01:54.245Z,100949.84
2022-08-26T02:04:27.983Z,100950.78
2022-08-26T02:06:57.666Z,100956.03
2022-08-26T02:09:27.356Z,100954.41
2022-08-26T02:11:55.719Z,100951.19
2022-08-26T02:14:29.922Z,100950.06
2022-08-26T02:16:58.279Z,100948.25
2022-08-26T02:19:33.646Z,100952.63
2022-08-26T02:22:05.209Z,100957.75
2022-08-26T02:24:52.164Z,100960.41
2022-08-26T02:27:28.361Z,100956.22
2022-08-26T02:30:19.019Z,100957.75
2022-08-26T02:32:47.358Z,100955.06
2022-08-26T02:35:20.332Z,100958.91
2022-08-26T02:37:50.401Z,100962.16
2022-08-26T02:40:23.191Z,100951.75
2022-08-26T02:42:52.915Z,100975.38
2022-08-26T02:45:23.174Z,100966.75
2022-08-26T02:47:52.714Z,100962.50
2022-08-26T02:50:22.556Z,100973.28
2022-08-26T02:52:50.287Z,100974.31
2022-08-26T02:55:18.615Z,100975.03
2022-08-26T02:57:47.138Z,100970.81
2022-08-26T03:00:15.865Z,100963.66
2022-08-26T03:02:44.214Z,100972.31
2022-08-26T03:05:12.917Z,100969.16
2022-08-26T03:07:40.735Z,100970.44
2022-08-26T03:10:09.321Z,100970.59
2022-08-26T03:12:37.434Z,100955.44
2022-08-26T03:15:17.996Z,100968.13
2022-08-26T03:17:48.450Z,100973.53
2022-08-26T03:20:18.793Z,100967.91
2022-08-26T03:22:47.312Z,100977.81
2022-08-26T03:25:18.666Z,100965.84
2022-08-26T03:27:47.003Z,100968.38
2022-08-26T03:30:35.383Z,100976.59
2022-08-26T03:33:04.071Z,100969.63
2022-08-26T03:35:34.233Z,100969.34
2022-08-26T03:38:03.777Z,100969.31
2022-08-26T03:40:34.133Z,100973.59
2022-08-26T03:43:04.367Z,100971.16
2022-08-26T03:45:32.784Z,100973.00
2022-08-26T03:48:01.117Z,100976.59
2022-08-26T03:50:30.339Z,100974.97
2022-08-26T03:53:02.596Z,100963.84
2022-08-26T03:55:33.096Z,100969.44
2022-08-26T03:58:01.374Z,100966.72
2022-08-26T04:00:31.436Z,100967.88
2022-08-26T04:03:02.519Z,100970.47
2022-08-26T04:05:30.462Z,100960.56
2022-08-26T04:07:58.548Z,100964.22
2022-08-26T04:10:29.300Z,100964.44
2022-08-26T04:12:59.283Z,100963.72
2022-08-26T04:15:30.351Z,100962.22
2022-08-26T04:17:58.629Z,100956.31
2022-08-26T04:20:27.339Z,100959.41
2022-08-26T04:22:56.399Z,100965.34
2022-08-26T04:25:24.936Z,100970.41
2022-08-26T04:27:52.729Z,100973.00
2022-08-26T04:30:21.488Z,100976.37
2022-08-26T04:32:50.112Z,100961.34
2022-08-26T04:35:20.846Z,100966.69
2022-08-26T04:37:53.856Z,100966.38
2022-08-26T04:40:22.059Z,100962.03
2022-08-26T04:42:50.601Z,100969.53
2022-08-26T04:45:19.247Z,100978.19
2022-08-26T04:47:55.035Z,100972.78
2022-08-26T04:50:25.867Z,100967.88
2022-08-26T04:52:55.654Z,100972.97
2022-08-26T04:55:38.600Z,100970.97
2022-08-26T05:00:57.000Z,100966.44
2022-08-26T05:03:30.630Z,100971.50
2022-08-26T05:05:59.460Z,100968.78
2022-08-26T05:08:27.865Z,100977.59
2022-08-26T05:10:56.444Z,100973.00
2022-08-26T05:13:27.910Z,100971.97
2022-08-26T05:15:58.157Z,100970.81
2022-08-26T05:18:30.609Z,100976.66
2022-08-26T05:20:58.550Z,100971.28
2022-08-26T05:23:26.545Z,100966.97
2022-08-26T05:25:59.244Z,100979.37
2022-08-26T05:28:30.343Z,100977.06
2022-08-26T05:30:58.640Z,100978.19
2022-08-26T05:33:26.492Z,100969.41
2022-08-26T05:35:54.734Z,100977.16
2022-08-26T05:38:23.581Z,100972.84
2022-08-26T05:40:53.196Z,100963.72
2022-08-26T05:43:21.502Z,100968.03
2022-08-26T05:45:51.030Z,100971.94
2022-08-26T05:48:24.065Z,100970.00
2022-08-26T05:50:54.204Z,100965.97
2022-08-26T05:53:23.977Z,100967.53
2022-08-26T05:55:54.875Z,100981.06
2022-08-26T05:58:23.850Z,100970.75
2022-08-26T06:01:04.313Z,100966.56
2022-08-26T06:03:39.036Z,100965.87
2022-08-26T06:06:09.916Z,100960.53
2022-08-26T06:08:39.037Z,100963.06
2022-08-26T06:11:18.247Z,100970.47
2022-08-26T06:13:47.336Z,100967.78
2022-08-26T06:16:18.529Z,100970.19
2022-08-26T06:18:48.370Z,100965.97
2022-08-26T06:21:20.069Z,100963.47
2022-08-26T06:24:08.243Z,100957.66
2022-08-26T06:26:40.066Z,100961.66
2022-08-26T06:29:11.102Z,100958.94
2022-08-26T06:31:44.110Z,100962.44
2022-08-26T06:34:13.569Z,100963.69
2022-08-26T06:36:43.956Z,100957.53
2022-08-26T06:39:14.526Z,100958.44
2022-08-26T06:41:45.063Z,100959.97
2022-08-26T06:44:16.781Z,100962.87
2022-08-26T06:46:45.976Z,100964.12
2022-08-26T06:49:18.607Z,100965.38
2022-08-26T06:51:58.996Z,100959.91
2022-08-26T06:54:31.973Z,100963.44
2022-08-26T06:57:00.112Z,100965.59
2022-08-26T06:59:28.637Z,100965.34
2022-08-26T07:01:57.438Z,100973.19
2022-08-26T07:04:27.853Z,100958.47
2022-08-26T07:06:56.425Z,100968.84
2022-08-26T07:09:30.738Z,100965.97
2022-08-26T07:11:58.861Z,100967.28
2022-08-26T07:14:27.001Z,100969.16
2022-08-26T07:16:55.654Z,100957.28
2022-08-26T07:19:29.845Z,100950.84
2022-08-26T07:22:04.998Z,100958.53
2022-08-26T07:24:42.446Z,100952.69
2022-08-26T07:27:13.737Z,100952.13
2022-08-26T07:29:43.839Z,100947.50
2022-08-26T07:32:13.937Z,100955.78
2022-08-26T07:34:43.354Z,100949.47
2022-08-26T07:37:11.630Z,100951.91
2022-08-26T07:39:40.384Z,100952.50
2022-08-26T07:42:09.981Z,100945.34
2022-08-26T07:44:38.456Z,100950.00
2022-08-26T07:47:10.517Z,100947.12
2022-08-26T07:49:55.413Z,100943.47
2022-08-26T07:52:26.937Z,100940.81
2022-08-26T07:54:58.438Z,100930.50
2022-08-26T07:57:27.123Z,100939.59
2022-08-26T07:59:55.974Z,100944.75
2022-08-26T08:02:27.104Z,100938.41
2022-08-26T08:04:57.038Z,100945.34
2022-08-26T08:07:25.882Z,100941.84
2022-08-26T08:10:21.483Z,100935.37
2022-08-26T08:12:53.984Z,100942.25
2022-08-26T08:15:25.284Z,100936.69
2022-08-26T08:17:54.777Z,100933.06
2022-08-26T08:20:26.461Z,100936.69
2022-08-26T08:22:54.695Z,100942.16
2022-08-26T08:25:23.613Z,100934.84
2022-08-26T08:27:51.943Z,100933.28
2022-08-26T08:30:22.683Z,100923.69
2022-08-26T08:32:52.657Z,100918.66
2022-08-26T08:35:22.817Z,100926.16
2022-08-26T08:37:54.675Z,100937.81
2022-08-26T08:40:25.865Z,100927.66
2022-08-26T08:43:23.245Z,100926.16
2022-08-26T08:45:59.853Z,100924.47
2022-08-26T08:48:33.255Z,100919.72
2022-08-26T08:51:15.320Z,100921.84
2022-08-26T08:53:48.132Z,100910.25
2022-08-26T08:56:26.945Z,100905.56
2022-08-26T08:59:00.216Z,100905.75
2022-08-26T09:01:53.995Z,100913.44
2022-08-26T09:04:50.647Z,100911.59
2022-08-26T09:07:40.817Z,100911.69
2022-08-26T09:10:21.112Z,100914.34
2022-08-26T09:12:50.952Z,100913.41
2022-08-26T09:15:30.153Z,100914.44
2022-08-26T09:18:19.194Z,100909.50
2022-08-26T09:20:57.089Z,100902.78
2022-08-26T09:23:27.518Z,100909.69
2022-08-26T09:26:01.680Z,100899.91
2022-08-26T09:28:32.083Z,100900.22
2022-08-26T09:31:12.439Z,100898.34
2022-08-26T09:33:42.067Z,100894.63
2022-08-26T09:36:18.932Z,100899.53
2022-08-26T09:38:46.817Z,100900.16
2022-08-26T09:41:44.240Z,100892.84
2022-08-26T09:44:18.952Z,100897.31
2022-08-26T09:46:55.924Z,100902.13
2022-08-26T09:49:31.596Z,100898.72
2022-08-26T09:52:11.795Z,100898.94
2022-08-26T09:54:41.557Z,100886.12
2022-08-26T09:57:28.364Z,100884.97
2022-08-26T09:59:57.091Z,100875.59
2022-08-26T10:02:34.171Z,100883.91
2022-08-26T10:05:09.626Z,100879.41
2022-08-26T10:07:46.082Z,100879.78
2022-08-26T10:10:39.236Z,100875.25
2022-08-26T10:13:16.838Z,100873.56
2022-08-26T10:16:16.443Z,100872.03
2022-08-26T10:19:08.543Z,100877.28
2022-08-26T10:22:12.738Z,100884.47
2022-08-26T10:24:48.982Z,100871.34
2022-08-26T10:27:51.064Z,100878.38
2022-08-26T10:30:28.142Z,100881.28
2022-08-26T10:32:58.608Z,100866.47
2022-08-26T10:35:27.732Z,100863.53
2022-08-26T10:38:01.538Z,100855.84
2022-08-26T10:40:32.655Z,100857.19
2022-08-26T10:43:16.136Z,100865.84
2022-08-26T10:45:50.698Z,100860.34
2022-08-26T10:48:35.550Z,100849.00
2022-08-26T10:51:05.664Z,100847.06
2022-08-26T10:53:59.817Z,100838.91
2022-08-26T10:56:46.828Z,100840.00
2022-08-26T10:59:49.263Z,100838.91
2022-08-26T11:02:40.867Z,100842.91
2022-08-26T11:05:20.085Z,100839.19
2022-08-26T11:07:55.095Z,100825.66
2022-08-26T11:10:25.843Z,100833.66
2022-08-26T11:13:07.348Z,100839.22
2022-08-26T11:15:41.023Z,100839.59
2022-08-26T11:18:31.988Z,100837.34
2022-08-26T11:20:59.957Z,100836.78
2022-08-26T11:23:29.128Z,100837.22
2022-08-26T11:25:57.131Z,100833.03
2022-08-26T11:28:50.732Z,100828.31
2022-08-26T11:31:26.760Z,100829.28
2022-08-26T11:34:00.509Z,100828.84
2022-08-26T11:36:35.482Z,100820.59
2022-08-26T11:39:15.036Z,100824.19
2022-08-26T11:41:45.734Z,100823.41
2022-08-26T11:44:19.370Z,100827.53
2022-08-26T11:47:00.151Z,100828.44
2022-08-26T11:49:29.868Z,100819.75
2022-08-26T11:52:20.957Z,100814.91
2022-08-26T11:55:09.990Z,100820.13
2022-08-26T11:57:45.869Z,100823.06
2022-08-26T12:00:34.575Z,100818.38
2022-08-26T12:03:08.227Z,100817.78
2022-08-26T12:05:43.768Z,100817.84
2022-08-26T12:08:18.599Z,100816.03
2022-08-26T12:10:46.525Z,100819.03
2022-08-26T12:13:26.639Z,100818.75
2022-08-26T12:15:57.425Z,100822.41
2022-08-26T12:18:47.417Z,100818.94
2022-08-26T12:21:24.267Z,100814.47
2022-08-26T12:23:55.432Z,100817.97
2022-08-26T12:26:27.338Z,100822.00
2022-08-26T12:28:58.707Z,100817.19
2022-08-26T12:31:30.531Z,100817.13
2022-08-26T12:34:01.046Z,100812.72
2022-08-26T12:36:32.492Z,100805.91
2022-08-26T12:39:09.483Z,100799.50
2022-08-26T12:41:50.686Z,100799.56
2022-08-26T12:44:56.269Z,100801.59
2022-08-26T12:47:42.599Z,100802.56
2022-08-26T12:50:19.732Z,100809.97
2022-08-26T12:53:24.140Z,100803.28
2022-08-26T12:56:21.191Z,100797.66
2022-08-26T12:59:21.409Z,100798.25
2022-08-26T13:01:49.945Z,100792.47
2022-08-26T13:04:39.296Z,100781.50
2022-08-26T13:07:23.629Z,100785.16
2022-08-26T13:09:54.310Z,100783.13
2022-08-26T13:12:26.516Z,100775.75
2022-08-26T13:14:54.945Z,100773.59
2022-08-26T13:17:23.135Z,100774.84
2022-08-26T13:19:51.093Z,100771.09
2022-08-26T13:22:24.547Z,100770.56
2022-08-26T13:24:55.993Z,100759.34
2022-08-26T13:27:26.496Z,100753.78
2022-08-26T13:29:57.439Z,100755.50
2022-08-26T13:32:27.550Z,100752.53
2022-08-26T13:34:57.457Z,100757.75
2022-08-26T13:37:34.586Z,100752.53
2022-08-26T13:40:07.503Z,100755.50
2022-08-26T13:42:35.434Z,100752.69
2022-08-26T13:45:04.763Z,100745.06
2022-08-26T13:47:33.846Z,100750.25
2022-08-26T13:50:01.711Z,100742.16
2022-08-26T13:52:30.538Z,100741.50
2022-08-26T13:55:04.522Z,100739.22
2022-08-26T13:57:32.943Z,100741.41
2022-08-26T14:00:04.519Z,100742.88
2022-08-26T14:02:36.647Z,100735.16
2022-08-26T14:05:05.832Z,100739.47
2022-08-26T14:07:33.784Z,100744.09
2022-08-26T14:10:01.998Z,100738.97
2022-08-26T14:12:33.563Z,100736.59
2022-08-26T14:15:01.449Z,100732.00
2022-08-26T14:17:30.748Z,100736.22
2022-08-26T14:19:59.253Z,100741.41
2022-08-26T14:22:27.078Z,100748.28
2022-08-26T14:24:55.356Z,100757.06
2022-08-26T14:27:23.648Z,100760.22
2022-08-26T14:29:52.435Z,100760.66
2022-08-26T14:32:27.550Z,100752.44
2022-08-26T14:34:56.517Z,100756.81
2022-08-26T14:37:24.876Z,100754.63
2022-08-26T14:39:53.073Z,100752.44
2022-08-26T14:42:26.836Z,100756.06
2022-08-26T14:45:02.431Z,100761.50
2022-08-26T14:47:31.383Z,100756.94
2022-08-26T14:50:02.210Z,100755.91
2022-08-26T14:52:50.556Z,100748.09
2022-08-26T14:55:18.506Z,100758.50
2022-08-26T14:57:46.761Z,100750.66
2022-08-26T15:00:14.969Z,100750.34
2022-08-26T15:02:44.420Z,100756.31
2022-08-26T15:05:12.886Z,100754.59
2022-08-26T15:07:41.110Z,100758.75
2022-08-26T15:10:13.990Z,100755.87
2022-08-26T15:12:42.846Z,100756.22
2022-08-26T15:15:13.375Z,100760.28
2022-08-26T15:17:41.754Z,100746.84
2022-08-26T15:20:10.954Z,100752.16
2022-08-26T15:22:39.856Z,100754.88
2022-08-26T15:25:09.038Z,100742.69
2022-08-26T15:27:37.956Z,100750.03
2022-08-26T15:30:08.477Z,100752.50
2022-08-26T15:32:39.206Z,100745.63
2022-08-26T15:35:09.634Z,100749.72
2022-08-26T15:37:37.506Z,100753.16
2022-08-26T15:40:09.393Z,100750.25
2022-08-26T15:42:37.846Z,100746.47
2022-08-26T15:45:06.473Z,100749.72
2022-08-26T15:47:35.524Z,100749.56
2022-08-26T15:50:23.009Z,100752.16
2022-08-26T15:52:50.971Z,100756.41
2022-08-26T15:55:18.853Z,100758.25
2022-08-26T15:57:50.670Z,100765.31
2022-08-26T16:00:18.917Z,100757.81
2022-08-26T16:02:47.388Z,100762.13
2022-08-26T16:05:15.416Z,100762.97
2022-08-26T16:07:43.429Z,100768.87
2022-08-26T16:10:11.799Z,100765.47
2022-08-26T16:12:39.992Z,100768.44
2022-08-26T16:15:08.711Z,100761.88
2022-08-26T16:17:37.931Z,100764.66
2022-08-26T16:20:06.609Z,100768.09
2022-08-26T16:22:34.460Z,100768.94
2022-08-26T16:25:02.656Z,100772.69
2022-08-26T16:27:33.875Z,100772.28
2022-08-26T16:30:04.661Z,100774.12
2022-08-26T16:32:32.461Z,100777.41
2022-08-26T16:35:00.438Z,100776.19
2022-08-26T16:37:28.828Z,100771.84
2022-08-26T16:40:02.723Z,100786.94
2022-08-26T16:42:31.340Z,100793.41
2022-08-26T16:44:59.468Z,100795.72
2022-08-26T16:47:27.701Z,100795.41
2022-08-26T16:49:55.998Z,100797.91
2022-08-26T16:52:33.562Z,100799.09
2022-08-26T16:55:01.860Z,100806.50
2022-08-26T16:57:29.969Z,100800.66
2022-08-26T17:00:05.417Z,100790.91
2022-08-26T17:02:34.500Z,100799.63
2022-08-26T17:05:02.459Z,100798.28
2022-08-26T17:07:30.360Z,100794.59
2022-08-26T17:10:06.190Z,100800.19
2022-08-26T17:12:36.507Z,100799.87
2022-08-26T17:15:09.498Z,100795.91
2022-08-26T17:17:37.526Z,100802.66
2022-08-26T17:20:11.994Z,100799.25
2022-08-26T17:22:44.127Z,100802.00
2022-08-26T17:25:14.471Z,100803.41
2022-08-26T17:27:43.371Z,100799.75
2022-08-26T17:30:11.851Z,100799.94
2022-08-26T17:32:41.330Z,100798.84
2022-08-26T17:35:11.051Z,100799.09
2022-08-26T17:37:41.535Z,100805.25
2022-08-26T17:40:15.782Z,100802.66
2022-08-26T17:42:44.554Z,100800.38
2022-08-26T17:45:13.383Z,100797.97
2022-08-26T17:47:41.769Z,100801.25
2022-08-26T17:50:13.220Z,100805.88
2022-08-26T17:52:42.085Z,100801.78
2022-08-26T17:55:13.077Z,100812.00
2022-08-26T17:57:42.339Z,100801.38
2022-08-26T18:00:15.859Z,100791.53
2022-08-26T18:02:44.826Z,100810.59
2022-08-26T18:05:15.419Z,100810.69
2022-08-26T18:07:43.731Z,100808.94
2022-08-26T18:10:15.936Z,100808.72
2022-08-26T18:12:43.938Z,100811.19
2022-08-26T18:15:14.571Z,100812.81
2022-08-26T18:17:43.049Z,100811.13
2022-08-26T18:20:15.489Z,100811.91
2022-08-26T18:22:45.094Z,100806.72
2022-08-26T18:25:14.051Z,100812.53
2022-08-26T18:27:42.618Z,100816.22
2022-08-26T18:30:16.771Z,100814.59
2022-08-26T18:32:45.146Z,100820.41
2022-08-26T18:35:14.148Z,100819.31
2022-08-26T18:37:42.289Z,100817.72
2022-08-26T18:40:12.574Z,100821.38
2022-08-26T18:42:41.788Z,100822.16
2022-08-26T18:45:10.875Z,100816.75
2022-08-26T18:47:44.586Z,100821.38
2022-08-26T18:50:12.780Z,100817.25
2022-08-26T18:52:41.157Z,100821.78
2022-08-26T18:55:09.966Z,100822.91
2022-08-26T18:57:38.447Z,100832.28
2022-08-26T19:00:11.360Z,100821.38
2022-08-26T19:02:40.059Z,100818.06
2022-08-26T19:05:08.978Z,100828.78
2022-08-26T19:07:39.605Z,100830.19
2022-08-26T19:10:08.569Z,100839.97
2022-08-26T19:12:36.745Z,100831.59
2022-08-26T19:15:05.328Z,100837.47
2022-08-26T19:17:33.891Z,100838.22
2022-08-26T19:20:02.116Z,100853.38
2022-08-26T19:22:31.219Z,100846.25
2022-08-26T19:24:59.598Z,100857.37
2022-08-26T19:27:28.169Z,100852.12
2022-08-26T19:29:58.839Z,100859.03
2022-08-26T19:32:27.329Z,100860.34
2022-08-26T19:34:55.448Z,100856.56
2022-08-26T19:37:23.583Z,100857.91
2022-08-26T19:39:52.109Z,100854.56
2022-08-26T19:42:20.148Z,100867.41
2022-08-26T19:45:07.184Z,100864.75
2022-08-26T19:47:40.306Z,100862.38
2022-08-26T19:50:13.223Z,100865.44
2022-08-26T19:52:43.358Z,100873.97
2022-08-26T19:55:13.584Z,100874.78
2022-08-26T19:57:43.113Z,100872.09
2022-08-26T20:00:15.307Z,100873.81
2022-08-26T20:02:44.384Z,100872.41
2022-08-26T20:05:14.728Z,100878.63
2022-08-26T20:07:43.425Z,100872.62
2022-08-26T20:10:13.940Z,100881.63
2022-08-26T20:12:42.850Z,100881.31
2022-08-26T20:15:12.996Z,100877.28
2022-08-26T20:17:41.192Z,100883.75
2022-08-26T20:20:33.436Z,100887.47
2022-08-26T20:23:03.975Z,100876.63
2022-08-26T20:25:33.449Z,100893.16
2022-08-26T20:28:02.268Z,100887.13
2022-08-26T20:30:30.652Z,100883.78
2022-08-26T20:32:58.509Z,100891.19
2022-08-26T20:35:26.436Z,100891.91
2022-08-26T20:37:54.666Z,100891.75
2022-08-26T20:40:22.918Z,100900.06
2022-08-26T20:42:50.820Z,100905.31
2022-08-26T20:45:19.138Z,100896.31
2022-08-26T20:47:47.000Z,100904.69
2022-08-26T20:50:14.940Z,100901.56
2022-08-26T20:52:43.263Z,100899.28
2022-08-26T20:55:12.497Z,100894.34
2022-08-26T20:57:42.353Z,100902.84
2022-08-26T21:00:13.627Z,100908.44
2022-08-26T21:02:42.085Z,100905.75
2022-08-26T21:05:11.023Z,100895.72
2022-08-26T21:07:39.767Z,100896.97
2022-08-26T21:10:08.908Z,100901.97
2022-08-26T21:12:38.102Z,100898.34
2022-08-26T21:15:07.725Z,100893.34
2022-08-26T21:17:35.566Z,100894.44
2022-08-26T21:20:04.614Z,100895.19
2022-08-26T21:22:32.486Z,100894.94
2022-08-26T21:25:00.672Z,100896.66
2022-08-26T21:27:29.478Z,100909.62
2022-08-26T21:29:57.895Z,100897.03
2022-08-26T21:32:25.775Z,100897.50
2022-08-26T21:34:58.720Z,100895.91
2022-08-26T21:37:28.332Z,100900.41
2022-08-26T21:39:58.257Z,100892.19
2022-08-26T21:42:26.931Z,100895.66
2022-08-26T21:44:54.811Z,100882.69
2022-08-26T21:47:24.751Z,100887.59
2022-08-26T21:49:52.993Z,100895.66
2022-08-26T21:52:21.703Z,100894.16
2022-08-26T21:54:50.022Z,100896.62
2022-08-26T21:57:18.667Z,100899.13
2022-08-26T21:59:46.539Z,100905.78
2022-08-26T22:02:15.783Z,100896.53
2022-08-26T22:04:48.572Z,100895.78
2022-08-26T22:07:19.451Z,100890.28
2022-08-26T22:09:48.002Z,100899.13
2022-08-26T22:12:18.427Z,100895.09
2022-08-26T22:14:46.304Z,100901.03
2022-08-26T22:17:14.628Z,100902.25
2022-08-26T22:19:46.046Z,100905.31
2022-08-26T22:22:15.344Z,100898.13
2022-08-26T22:24:43.719Z,100901.97
2022-08-26T22:27:12.277Z,100904.25
2022-08-26T22:29:41.088Z,100913.19
2022-08-26T22:32:08.953Z,100904.25
2022-08-26T22:34:39.816Z,100889.62
2022-08-26T22:37:08.410Z,100889.16
2022-08-26T22:39:39.424Z,100900.56
2022-08-26T22:42:07.491Z,100897.22
2022-08-26T22:44:37.322Z,100898.63
2022-08-26T22:47:05.348Z,100897.84
2022-08-26T22:49:33.240Z,100891.16
2022-08-26T22:52:01.854Z,100894.91
2022-08-26T22:54:29.647Z,100892.59
2022-08-26T22:56:57.602Z,100892.59
2022-08-26T22:59:25.811Z,100889.22
2022-08-26T23:01:53.650Z,100899.78
2022-08-26T23:04:21.595Z,100886.78
2022-08-26T23:06:50.085Z,100891.78
2022-08-26T23:09:18.953Z,100892.34
2022-08-26T23:11:48.795Z,100891.97
2022-08-26T23:14:18.704Z,100898.09
2022-08-26T23:16:47.733Z,100895.88
2022-08-26T23:19:19.446Z,100893.66
2022-08-26T23:21:48.637Z,100895.75
2022-08-26T23:24:17.644Z,100896.69
2022-08-26T23:26:46.094Z,100895.44
2022-08-26T23:29:15.955Z,100890.56
2022-08-26T23:31:44.116Z,100896.97
2022-08-26T23:34:30.872Z,100895.50
2022-08-26T23:37:00.122Z,100896.62
2022-08-26T23:39:29.795Z,100889.94
2022-08-26T23:41:58.356Z,100904.63
2022-08-26T23:44:26.890Z,100897.34
2022-08-26T23:46:55.363Z,100902.81
2022-08-26T23:49:24.344Z,100908.56
2022-08-26T23:52:11.440Z,100894.56
2022-08-26T23:54:40.067Z,100903.16
2022-08-26T23:57:09.729Z,100901.75
2022-08-26T23:59:39.065Z,100906.22
